sensor_id;sensor_type;location;lat;lon;timestamp;pressure;altitude;pressure_sealevel;temperature;humidity
68628;BME280;55611;48.602;9.490;2023-04-20T00:01:34;96840;;;6.5;60
68628;BME280;55611;48.602;9.490;2023-04-20T00:04:05;96840;;;6.4;60
68628;BME280;55611;48.602;9.490;2023-04-20T00:06:35;96830;;;6.3;60
68628;BME280;55611;48.602;9.490;2023-04-20T00:09:06;96820;;;6.3;60
68628;BME280;55611;48.602;9.490;2023-04-20T00:11:36;96820;;;6.2;59.5
68628;BME280;55611;48.602;9.490;2023-04-20T00:14:07;96820;;;6.1;59.5
68628;BME280;55611;48.602;9.490;2023-04-20T00:16:37;96820;;;6.1;59.5
68628;BME280;55611;48.602;9.490;2023-04-20T00:19:08;96820;;;6;59.5
68628;BME280;55611;48.602;9.490;2023-04-20T00:21:38;96810;;;6.1;59.5
68628;BME280;55611;48.602;9.490;2023-04-20T00:24:09;96810;;;6.1;59.5
68628;BME280;55611;48.602;9.490;2023-04-20T00:26:39;96810;;;6.1;59.5
68628;BME280;55611;48.602;9.490;2023-04-20T00:29:10;96810;;;6.1;59.5
68628;BME280;55611;48.602;9.490;2023-04-20T00:31:41;96800;;;6.1;59.5
68628;BME280;55611;48.602;9.490;2023-04-20T00:34:11;96800;;;6.1;59.5
68628;BME280;55611;48.602;9.490;2023-04-20T00:36:41;96800;;;6.1;59.5
68628;BME280;55611;48.602;9.490;2023-04-20T00:39:12;96800;;;6;59.5
68628;BME280;55611;48.602;9.490;2023-04-20T00:41:42;96800;;;5.9;59.5
68628;BME280;55611;48.602;9.490;2023-04-20T00:44:13;96790;;;5.8;59.5
68628;BME280;55611;48.602;9.490;2023-04-20T00:46:43;96780;;;5.7;59.5
68628;BME280;55611;48.602;9.490;2023-04-20T00:49:14;96780;;;5.8;59.5
68628;BME280;55611;48.602;9.490;2023-04-20T00:51:45;96770;;;5.8;59.5
68628;BME280;55611;48.602;9.490;2023-04-20T00:54:15;96770;;;5.7;59.5
68628;BME280;55611;48.602;9.490;2023-04-20T00:56:46;96770;;;5.7;59.5
68628;BME280;55611;48.602;9.490;2023-04-20T00:59:16;96760;;;5.7;59.5
68628;BME280;55611;48.602;9.490;2023-04-20T01:01:47;96760;;;5.6;59.5
68628;BME280;55611;48.602;9.490;2023-04-20T01:04:17;96750;;;5.7;59.5
68628;BME280;55611;48.602;9.490;2023-04-20T01:06:48;96750;;;5.7;59.5
68628;BME280;55611;48.602;9.490;2023-04-20T01:09:18;96740;;;5.7;60
68628;BME280;55611;48.602;9.490;2023-04-20T01:11:49;96740;;;5.6;59.5
68628;BME280;55611;48.602;9.490;2023-04-20T01:14:19;96740;;;5.7;59.5
68628;BME280;55611;48.602;9.490;2023-04-20T01:16:50;96730;;;5.7;59.5
68628;BME280;55611;48.602;9.490;2023-04-20T01:19:20;96740;;;5.6;59.5
68628;BME280;55611;48.602;9.490;2023-04-20T01:21:51;96730;;;5.6;59.5
68628;BME280;55611;48.602;9.490;2023-04-20T01:24:21;96730;;;5.7;59.5
68628;BME280;55611;48.602;9.490;2023-04-20T01:26:52;96730;;;5.7;59.5
68628;BME280;55611;48.602;9.490;2023-04-20T01:29:22;96730;;;5.7;59.5
68628;BME280;55611;48.602;9.490;2023-04-20T01:31:53;96720;;;5.8;59.5
68628;BME280;55611;48.602;9.490;2023-04-20T01:34:23;96720;;;5.8;59.5
68628;BME280;55611;48.602;9.490;2023-04-20T01:36:54;96720;;;5.8;60
68628;BME280;55611;48.602;9.490;2023-04-20T01:39:24;96710;;;5.7;60
68628;BME280;55611;48.602;9.490;2023-04-20T01:41:55;96710;;;5.7;60
68628;BME280;55611;48.602;9.490;2023-04-20T01:44:25;96700;;;5.7;59.5
68628;BME280;55611;48.602;9.490;2023-04-20T01:46:56;96710;;;5.7;59.5
68628;BME280;55611;48.602;9.490;2023-04-20T01:49:26;96700;;;5.7;59.5
68628;BME280;55611;48.602;9.490;2023-04-20T01:51:57;96700;;;5.7;59.5
68628;BME280;55611;48.602;9.490;2023-04-20T01:54:27;96700;;;5.7;59.5
68628;BME280;55611;48.602;9.490;2023-04-20T01:56:58;96690;;;5.7;59.5
68628;BME280;55611;48.602;9.490;2023-04-20T01:59:28;96690;;;5.7;59.5
68628;BME280;55611;48.602;9.490;2023-04-20T02:01:59;96690;;;5.6;59.5
68628;BME280;55611;48.602;9.490;2023-04-20T02:04:29;96690;;;5.5;59.5
68628;BME280;55611;48.602;9.490;2023-04-20T02:07:00;96680;;;5.5;59.5
68628;BME280;55611;48.602;9.490;2023-04-20T02:09:30;96680;;;5.4;59.5
68628;BME280;55611;48.602;9.490;2023-04-20T02:12:01;96680;;;5.3;59.5
68628;BME280;55611;48.602;9.490;2023-04-20T02:14:32;96680;;;5.2;59.5
68628;BME280;55611;48.602;9.490;2023-04-20T02:17:02;96680;;;5.3;59.5
68628;BME280;55611;48.602;9.490;2023-04-20T02:19:33;96680;;;5.3;59.5
68628;BME280;55611;48.602;9.490;2023-04-20T02:22:03;96680;;;5.3;59.5
68628;BME280;55611;48.602;9.490;2023-04-20T02:24:34;96670;;;5.4;59.5
68628;BME280;55611;48.602;9.490;2023-04-20T02:27:04;96670;;;5.4;59.5
68628;BME280;55611;48.602;9.490;2023-04-20T02:29:35;96670;;;5.4;59.5
68628;BME280;55611;48.602;9.490;2023-04-20T02:32:05;96670;;;5.4;59.5
68628;BME280;55611;48.602;9.490;2023-04-20T02:34:36;96660;;;5.4;59.5
68628;BME280;55611;48.602;9.490;2023-04-20T02:37:06;96660;;;5.4;59.5
68628;BME280;55611;48.602;9.490;2023-04-20T02:39:37;96660;;;5.4;59.5
68628;BME280;55611;48.602;9.490;2023-04-20T02:42:07;96660;;;5.4;59.5
68628;BME280;55611;48.602;9.490;2023-04-20T02:44:38;96650;;;5.4;59.5
68628;BME280;55611;48.602;9.490;2023-04-20T02:47:08;96660;;;5.3;59.5
68628;BME280;55611;48.602;9.490;2023-04-20T02:49:39;96660;;;5.2;59.5
68628;BME280;55611;48.602;9.490;2023-04-20T02:52:09;96640;;;5.2;59.5
68628;BME280;55611;48.602;9.490;2023-04-20T02:54:40;96650;;;5.1;59.5
68628;BME280;55611;48.602;9.490;2023-04-20T02:57:10;96650;;;5.1;59.5
68628;BME280;55611;48.602;9.490;2023-04-20T02:59:41;96650;;;5;59.5
68628;BME280;55611;48.602;9.490;2023-04-20T03:02:11;96650;;;4.8;60
68628;BME280;55611;48.602;9.490;2023-04-20T03:04:42;96640;;;4.9;59.5
68628;BME280;55611;48.602;9.490;2023-04-20T03:07:13;96640;;;4.8;59.5
68628;BME280;55611;48.602;9.490;2023-04-20T03:09:43;96630;;;4.8;59.5
68628;BME280;55611;48.602;9.490;2023-04-20T03:12:13;96630;;;4.8;59.5
68628;BME280;55611;48.602;9.490;2023-04-20T03:14:44;96630;;;4.8;59.5
68628;BME280;55611;48.602;9.490;2023-04-20T03:17:14;96620;;;4.7;60
68628;BME280;55611;48.602;9.490;2023-04-20T03:19:45;96620;;;4.7;60
68628;BME280;55611;48.602;9.490;2023-04-20T03:22:15;96620;;;4.7;60
68628;BME280;55611;48.602;9.490;2023-04-20T03:24:46;96620;;;4.7;60
68628;BME280;55611;48.602;9.490;2023-04-20T03:27:16;96620;;;4.6;60
68628;BME280;55611;48.602;9.490;2023-04-20T03:29:47;96620;;;4.7;60
68628;BME280;55611;48.602;9.490;2023-04-20T03:32:17;96620;;;4.7;60
68628;BME280;55611;48.602;9.490;2023-04-20T03:34:49;96610;;;4.7;60
68628;BME280;55611;48.602;9.490;2023-04-20T03:37:18;96610;;;4.7;60
68628;BME280;55611;48.602;9.490;2023-04-20T03:39:49;96610;;;4.7;60
68628;BME280;55611;48.602;9.490;2023-04-20T03:42:20;96610;;;4.7;60
68628;BME280;55611;48.602;9.490;2023-04-20T03:44:50;96620;;;4.7;60
68628;BME280;55611;48.602;9.490;2023-04-20T03:47:21;96610;;;4.7;60
68628;BME280;55611;48.602;9.490;2023-04-20T03:49:51;96610;;;4.6;60
68628;BME280;55611;48.602;9.490;2023-04-20T03:52:22;96610;;;4.6;60
68628;BME280;55611;48.602;9.490;2023-04-20T03:54:52;96610;;;4.6;60
68628;BME280;55611;48.602;9.490;2023-04-20T03:57:23;96610;;;4.6;60
68628;BME280;55611;48.602;9.490;2023-04-20T03:59:53;96610;;;4.5;60
68628;BME280;55611;48.602;9.490;2023-04-20T04:02:24;96610;;;4.5;60
68628;BME280;55611;48.602;9.490;2023-04-20T04:04:54;96600;;;4.5;60
68628;BME280;55611;48.602;9.490;2023-04-20T04:07:25;96600;;;4.5;60
68628;BME280;55611;48.602;9.490;2023-04-20T04:09:55;96600;;;4.5;60
68628;BME280;55611;48.602;9.490;2023-04-20T04:12:26;96600;;;4.5;59.5
68628;BME280;55611;48.602;9.490;2023-04-20T04:14:56;96600;;;4.4;59.5
68628;BME280;55611;48.602;9.490;2023-04-20T04:17:27;96610;;;4.4;59.5
68628;BME280;55611;48.602;9.490;2023-04-20T04:19:57;96600;;;4.4;59.5
68628;BME280;55611;48.602;9.490;2023-04-20T04:22:28;96610;;;4.3;59.5
68628;BME280;55611;48.602;9.490;2023-04-20T04:24:58;96610;;;4.3;59.5
68628;BME280;55611;48.602;9.490;2023-04-20T04:27:29;96620;;;4.4;60
68628;BME280;55611;48.602;9.490;2023-04-20T04:30:00;96610;;;4.5;60
68628;BME280;55611;48.602;9.490;2023-04-20T04:32:30;96610;;;4.5;60
68628;BME280;55611;48.602;9.490;2023-04-20T04:35:00;96600;;;4.7;60
68628;BME280;55611;48.602;9.490;2023-04-20T04:37:31;96610;;;4.8;60
68628;BME280;55611;48.602;9.490;2023-04-20T04:40:01;96600;;;4.8;60.5
68628;BME280;55611;48.602;9.490;2023-04-20T04:42:32;96600;;;4.9;60.5
68628;BME280;55611;48.602;9.490;2023-04-20T04:45:03;96600;;;5;60.5
68628;BME280;55611;48.602;9.490;2023-04-20T04:47:33;96600;;;5.1;60.5
68628;BME280;55611;48.602;9.490;2023-04-20T04:50:04;96600;;;5.1;60.5
68628;BME280;55611;48.602;9.490;2023-04-20T04:52:34;96590;;;5.3;60.5
68628;BME280;55611;48.602;9.490;2023-04-20T04:55:05;96590;;;5.4;60.5
68628;BME280;55611;48.602;9.490;2023-04-20T04:57:35;96600;;;5.5;60.5
68628;BME280;55611;48.602;9.490;2023-04-20T05:00:06;96590;;;5.6;60.5
68628;BME280;55611;48.602;9.490;2023-04-20T05:02:36;96590;;;5.6;60.5
68628;BME280;55611;48.602;9.490;2023-04-20T05:05:07;96590;;;5.6;60.5
68628;BME280;55611;48.602;9.490;2023-04-20T05:07:37;96600;;;5.6;60.5
68628;BME280;55611;48.602;9.490;2023-04-20T05:10:08;96600;;;5.6;61
68628;BME280;55611;48.602;9.490;2023-04-20T05:12:38;96600;;;5.6;60.5
68628;BME280;55611;48.602;9.490;2023-04-20T05:15:09;96600;;;5.5;60.5
68628;BME280;55611;48.602;9.490;2023-04-20T05:17:39;96600;;;5.5;60.5
68628;BME280;55611;48.602;9.490;2023-04-20T05:20:10;96610;;;5.5;61
68628;BME280;55611;48.602;9.490;2023-04-20T05:22:40;96610;;;5.5;60.5
68628;BME280;55611;48.602;9.490;2023-04-20T05:25:11;96610;;;5.5;60.5
68628;BME280;55611;48.602;9.490;2023-04-20T05:27:41;96600;;;5.4;60.5
68628;BME280;55611;48.602;9.490;2023-04-20T05:30:12;96600;;;5.5;60.5
68628;BME280;55611;48.602;9.490;2023-04-20T05:32:42;96610;;;5.5;60.5
68628;BME280;55611;48.602;9.490;2023-04-20T05:37:43;96600;;;5.5;60.5
68628;BME280;55611;48.602;9.490;2023-04-20T05:40:14;96610;;;5.5;60.5
68628;BME280;55611;48.602;9.490;2023-04-20T05:42:44;96600;;;5.6;60.5
68628;BME280;55611;48.602;9.490;2023-04-20T05:45:15;96600;;;5.8;60.5
68628;BME280;55611;48.602;9.490;2023-04-20T05:48:00;96600;;;6.1;61
68628;BME280;55611;48.602;9.490;2023-04-20T05:50:16;96600;;;6.3;61
68628;BME280;55611;48.602;9.490;2023-04-20T05:52:46;96590;;;6.5;61
68628;BME280;55611;48.602;9.490;2023-04-20T05:55:17;96600;;;6.3;61
68628;BME280;55611;48.602;9.490;2023-04-20T05:57:47;96600;;;6;61
68628;BME280;55611;48.602;9.490;2023-04-20T06:00:18;96590;;;5.9;61
68628;BME280;55611;48.602;9.490;2023-04-20T06:02:49;96590;;;6;61
68628;BME280;55611;48.602;9.490;2023-04-20T06:05:19;96590;;;6.3;61
68628;BME280;55611;48.602;9.490;2023-04-20T06:07:49;96580;;;6.4;61
68628;BME280;55611;48.602;9.490;2023-04-20T06:10:20;96580;;;6.6;61
68628;BME280;55611;48.602;9.490;2023-04-20T06:12:50;96580;;;6.7;61
68628;BME280;55611;48.602;9.490;2023-04-20T06:15:21;96580;;;6.9;61
68628;BME280;55611;48.602;9.490;2023-04-20T06:17:51;96580;;;7.1;61
68628;BME280;55611;48.602;9.490;2023-04-20T06:20:22;96580;;;7.2;61
68628;BME280;55611;48.602;9.490;2023-04-20T06:22:52;96580;;;7.3;61
68628;BME280;55611;48.602;9.490;2023-04-20T06:27:53;96580;;;7.3;61.5
68628;BME280;55611;48.602;9.490;2023-04-20T06:30:24;96580;;;7.3;61.5
68628;BME280;55611;48.602;9.490;2023-04-20T06:32:55;96580;;;7.3;61
68628;BME280;55611;48.602;9.490;2023-04-20T06:35:25;96580;;;7.3;61
68628;BME280;55611;48.602;9.490;2023-04-20T06:37:56;96580;;;7.3;61
68628;BME280;55611;48.602;9.490;2023-04-20T06:40:26;96580;;;7.3;61
68628;BME280;55611;48.602;9.490;2023-04-20T06:42:57;96580;;;6.8;61
68628;BME280;55611;48.602;9.490;2023-04-20T06:45:27;96570;;;6.8;61
68628;BME280;55611;48.602;9.490;2023-04-20T06:47:58;96570;;;7;61
68628;BME280;55611;48.602;9.490;2023-04-20T06:50:28;96570;;;7.2;61.5
68628;BME280;55611;48.602;9.490;2023-04-20T06:52:59;96570;;;7.5;61.5
68628;BME280;55611;48.602;9.490;2023-04-20T06:55:29;96570;;;7.6;61.5
68628;BME280;55611;48.602;9.490;2023-04-20T06:58:00;96560;;;7.5;61.5
68628;BME280;55611;48.602;9.490;2023-04-20T07:00:30;96570;;;7.3;61.5
68628;BME280;55611;48.602;9.490;2023-04-20T07:03:01;96570;;;7.1;61.5
68628;BME280;55611;48.602;9.490;2023-04-20T07:05:31;96570;;;6.7;61.5
68628;BME280;55611;48.602;9.490;2023-04-20T07:08:02;96580;;;6.5;61.5
68628;BME280;55611;48.602;9.490;2023-04-20T07:10:32;96570;;;6.3;61.5
68628;BME280;55611;48.602;9.490;2023-04-20T07:13:03;96580;;;6.2;61.5
68628;BME280;55611;48.602;9.490;2023-04-20T07:15:33;96580;;;6.1;61.5
68628;BME280;55611;48.602;9.490;2023-04-20T07:18:04;96580;;;6.3;61.5
68628;BME280;55611;48.602;9.490;2023-04-20T07:20:34;96580;;;6.5;61.5
68628;BME280;55611;48.602;9.490;2023-04-20T07:23:05;96580;;;6.5;61.5
68628;BME280;55611;48.602;9.490;2023-04-20T07:25:35;96580;;;6.6;61.5
68628;BME280;55611;48.602;9.490;2023-04-20T07:28:06;96580;;;6.7;61.5
68628;BME280;55611;48.602;9.490;2023-04-20T07:30:36;96570;;;6.8;61.5
68628;BME280;55611;48.602;9.490;2023-04-20T07:33:07;96580;;;6.9;61.5
68628;BME280;55611;48.602;9.490;2023-04-20T07:35:37;96570;;;7;61.5
68628;BME280;55611;48.602;9.490;2023-04-20T07:38:08;96580;;;7.1;61.5
68628;BME280;55611;48.602;9.490;2023-04-20T07:40:38;96570;;;7.3;61.5
68628;BME280;55611;48.602;9.490;2023-04-20T07:43:09;96570;;;7.4;61.5
68628;BME280;55611;48.602;9.490;2023-04-20T07:45:39;96570;;;7.5;61.5
68628;BME280;55611;48.602;9.490;2023-04-20T07:48:10;96570;;;7.7;61.5
68628;BME280;55611;48.602;9.490;2023-04-20T07:50:41;96570;;;7.9;61.5
68628;BME280;55611;48.602;9.490;2023-04-20T07:53:11;96570;;;8.1;62
68628;BME280;55611;48.602;9.490;2023-04-20T07:55:42;96570;;;8.2;62
68628;BME280;55611;48.602;9.490;2023-04-20T07:58:13;96560;;;8.3;62
68628;BME280;55611;48.602;9.490;2023-04-20T08:00:44;96560;;;8.4;61.5
68628;BME280;55611;48.602;9.490;2023-04-20T08:03:13;96570;;;8.5;61.5
68628;BME280;55611;48.602;9.490;2023-04-20T08:05:44;96570;;;8.6;61.5
68628;BME280;55611;48.602;9.490;2023-04-20T08:08:14;96570;;;8.6;61.5
68628;BME280;55611;48.602;9.490;2023-04-20T08:10:45;96570;;;8.5;61.5
68628;BME280;55611;48.602;9.490;2023-04-20T08:13:15;96570;;;8.5;61.5
68628;BME280;55611;48.602;9.490;2023-04-20T08:15:46;96560;;;8.4;61.5
68628;BME280;55611;48.602;9.490;2023-04-20T08:18:16;96560;;;8.2;61.5
68628;BME280;55611;48.602;9.490;2023-04-20T08:20:47;96570;;;8.1;62
68628;BME280;55611;48.602;9.490;2023-04-20T08:23:17;96560;;;7.9;62
68628;BME280;55611;48.602;9.490;2023-04-20T08:25:48;96560;;;7.9;62
68628;BME280;55611;48.602;9.490;2023-04-20T08:28:18;96560;;;8;62
68628;BME280;55611;48.602;9.490;2023-04-20T08:30:49;96560;;;8.2;62
68628;BME280;55611;48.602;9.490;2023-04-20T08:33:19;96560;;;8.3;62
68628;BME280;55611;48.602;9.490;2023-04-20T08:35:50;96550;;;8.3;62
68628;BME280;55611;48.602;9.490;2023-04-20T08:38:20;96550;;;8.4;61.5
68628;BME280;55611;48.602;9.490;2023-04-20T08:40:51;96560;;;8.5;62
68628;BME280;55611;48.602;9.490;2023-04-20T08:43:21;96550;;;8.5;62
68628;BME280;55611;48.602;9.490;2023-04-20T08:45:52;96550;;;8.6;61.5
68628;BME280;55611;48.602;9.490;2023-04-20T08:53:23;96550;;;8.8;61.5
68628;BME280;55611;48.602;9.490;2023-04-20T08:55:54;96550;;;8.9;61.5
68628;BME280;55611;48.602;9.490;2023-04-20T08:58:28;96550;;;8.9;61.5
68628;BME280;55611;48.602;9.490;2023-04-20T09:00:55;96550;;;9;61.5
68628;BME280;55611;48.602;9.490;2023-04-20T09:03:33;96550;;;9.1;61.5
68628;BME280;55611;48.602;9.490;2023-04-20T09:05:56;96540;;;9;62
68628;BME280;55611;48.602;9.490;2023-04-20T09:08:36;96540;;;9;62
68628;BME280;55611;48.602;9.490;2023-04-20T09:10:57;96550;;;9.2;62
68628;BME280;55611;48.602;9.490;2023-04-20T09:13:28;96540;;;9.1;62
68628;BME280;55611;48.602;9.490;2023-04-20T09:16:08;96540;;;9.1;62
68628;BME280;55611;48.602;9.490;2023-04-20T09:18:29;96540;;;9.1;62.5
68628;BME280;55611;48.602;9.490;2023-04-20T09:21:14;96540;;;9.3;62
68628;BME280;55611;48.602;9.490;2023-04-20T09:23:30;96540;;;9.4;62
68628;BME280;55611;48.602;9.490;2023-04-20T09:26:00;96540;;;9.4;62
68628;BME280;55611;48.602;9.490;2023-04-20T09:28:34;96530;;;9.5;62
68628;BME280;55611;48.602;9.490;2023-04-20T09:31:01;96520;;;9.6;62
68628;BME280;55611;48.602;9.490;2023-04-20T09:33:32;96530;;;9.7;62
68628;BME280;55611;48.602;9.490;2023-04-20T09:36:03;96530;;;9.9;62
68628;BME280;55611;48.602;9.490;2023-04-20T09:38:33;96520;;;9.9;62.5
68628;BME280;55611;48.602;9.490;2023-04-20T09:41:03;96520;;;10;62.5
68628;BME280;55611;48.602;9.490;2023-04-20T09:43:34;96520;;;10.2;62.5
68628;BME280;55611;48.602;9.490;2023-04-20T09:46:04;96520;;;10.3;62.5
68628;BME280;55611;48.602;9.490;2023-04-20T09:48:35;96520;;;10.3;62.5
68628;BME280;55611;48.602;9.490;2023-04-20T09:51:05;96520;;;10.4;62.5
68628;BME280;55611;48.602;9.490;2023-04-20T09:53:36;96520;;;10.4;62.5
68628;BME280;55611;48.602;9.490;2023-04-20T09:56:06;96520;;;10.4;62.5
68628;BME280;55611;48.602;9.490;2023-04-20T09:58:37;96520;;;10.5;62.5
68628;BME280;55611;48.602;9.490;2023-04-20T10:01:08;96520;;;10.6;62.5
68628;BME280;55611;48.602;9.490;2023-04-20T10:03:41;96520;;;10.8;62.5
68628;BME280;55611;48.602;9.490;2023-04-20T10:06:24;96520;;;10.9;62.5
68628;BME280;55611;48.602;9.490;2023-04-20T10:08:39;96520;;;10.8;62.5
68628;BME280;55611;48.602;9.490;2023-04-20T10:11:09;96520;;;10.8;62.5
68628;BME280;55611;48.602;9.490;2023-04-20T10:13:40;96520;;;10.7;62.5
68628;BME280;55611;48.602;9.490;2023-04-20T10:16:18;96520;;;10.7;62.5
68628;BME280;55611;48.602;9.490;2023-04-20T10:18:41;96530;;;10.6;62.5
68628;BME280;55611;48.602;9.490;2023-04-20T10:21:11;96520;;;10.5;62.5
68628;BME280;55611;48.602;9.490;2023-04-20T10:23:46;96530;;;10.6;62.5
68628;BME280;55611;48.602;9.490;2023-04-20T10:26:12;96520;;;10.7;62.5
68628;BME280;55611;48.602;9.490;2023-04-20T10:28:43;96520;;;10.7;62
68628;BME280;55611;48.602;9.490;2023-04-20T10:31:14;96520;;;10.7;62.5
68628;BME280;55611;48.602;9.490;2023-04-20T10:33:48;96510;;;10.7;62.5
68628;BME280;55611;48.602;9.490;2023-04-20T10:36:30;96510;;;10.7;62.5
68628;BME280;55611;48.602;9.490;2023-04-20T10:38:45;96510;;;10.8;62.5
68628;BME280;55611;48.602;9.490;2023-04-20T10:41:16;96510;;;10.8;62.5
68628;BME280;55611;48.602;9.490;2023-04-20T10:43:46;96500;;;10.8;62.5
68628;BME280;55611;48.602;9.490;2023-04-20T10:46:18;96500;;;10.9;62.5
68628;BME280;55611;48.602;9.490;2023-04-20T10:48:48;96500;;;10.9;62.5
68628;BME280;55611;48.602;9.490;2023-04-20T10:51:18;96500;;;11;62.5
68628;BME280;55611;48.602;9.490;2023-04-20T10:54:04;96490;;;11;62.5
68628;BME280;55611;48.602;9.490;2023-04-20T10:56:19;96490;;;11.1;62.5
68628;BME280;55611;48.602;9.490;2023-04-20T10:58:49;96490;;;11.1;62.5
68628;BME280;55611;48.602;9.490;2023-04-20T11:01:20;96490;;;11.1;62.5
68628;BME280;55611;48.602;9.490;2023-04-20T11:03:50;96480;;;11.2;62.5
68628;BME280;55611;48.602;9.490;2023-04-20T11:06:21;96470;;;11.2;63
68628;BME280;55611;48.602;9.490;2023-04-20T11:08:51;96470;;;11.1;63
68628;BME280;55611;48.602;9.490;2023-04-20T11:11:23;96460;;;11;62.5
68628;BME280;55611;48.602;9.490;2023-04-20T11:14:08;96460;;;11;62.5
68628;BME280;55611;48.602;9.490;2023-04-20T11:16:23;96460;;;11.1;63
68628;BME280;55611;48.602;9.490;2023-04-20T11:18:54;96450;;;11.2;63
68628;BME280;55611;48.602;9.490;2023-04-20T11:21:33;96450;;;11.3;63
68628;BME280;55611;48.602;9.490;2023-04-20T11:23:54;96440;;;11.4;63
68628;BME280;55611;48.602;9.490;2023-04-20T11:26:33;96440;;;11.3;63
68628;BME280;55611;48.602;9.490;2023-04-20T11:28:55;96440;;;11.3;63
68628;BME280;55611;48.602;9.490;2023-04-20T11:31:26;96440;;;11.4;63
68628;BME280;55611;48.602;9.490;2023-04-20T11:33:57;96440;;;11.4;63
68628;BME280;55611;48.602;9.490;2023-04-20T11:36:27;96440;;;11.4;63
68628;BME280;55611;48.602;9.490;2023-04-20T11:39:05;96440;;;11.4;63
68628;BME280;55611;48.602;9.490;2023-04-20T11:41:28;96440;;;11.4;62.5
68628;BME280;55611;48.602;9.490;2023-04-20T11:43:58;96440;;;11.4;62.5
68628;BME280;55611;48.602;9.490;2023-04-20T11:46:32;96440;;;11.4;62.5
68628;BME280;55611;48.602;9.490;2023-04-20T11:48:59;96440;;;11.4;62.5
68628;BME280;55611;48.602;9.490;2023-04-20T11:51:30;96440;;;11.3;62.5
68628;BME280;55611;48.602;9.490;2023-04-20T11:54:01;96440;;;11.4;62.5
68628;BME280;55611;48.602;9.490;2023-04-20T11:56:31;96440;;;11.3;62.5
68628;BME280;55611;48.602;9.490;2023-04-20T11:59:01;96440;;;11.3;62.5
68628;BME280;55611;48.602;9.490;2023-04-20T12:02:01;96440;;;11.4;62.5
68628;BME280;55611;48.602;9.490;2023-04-20T12:04:03;96450;;;11.4;62.5
68628;BME280;55611;48.602;9.490;2023-04-20T12:06:33;96450;;;11.3;62.5
68628;BME280;55611;48.602;9.490;2023-04-20T12:09:04;96450;;;11.2;62.5
68628;BME280;55611;48.602;9.490;2023-04-20T12:11:34;96450;;;11.1;62.5
68628;BME280;55611;48.602;9.490;2023-04-20T12:14:05;96450;;;11;62.5
68628;BME280;55611;48.602;9.490;2023-04-20T12:16:35;96450;;;10.9;62.5
68628;BME280;55611;48.602;9.490;2023-04-20T12:19:06;96450;;;10.8;62.5
68628;BME280;55611;48.602;9.490;2023-04-20T12:21:36;96450;;;10.8;62.5
68628;BME280;55611;48.602;9.490;2023-04-20T12:24:07;96450;;;10.7;62.5
68628;BME280;55611;48.602;9.490;2023-04-20T12:26:37;96450;;;10.7;62.5
68628;BME280;55611;48.602;9.490;2023-04-20T12:29:08;96450;;;10.6;62.5
68628;BME280;55611;48.602;9.490;2023-04-20T12:31:38;96440;;;10.6;62.5
68628;BME280;55611;48.602;9.490;2023-04-20T12:34:09;96450;;;10.4;62.5
68628;BME280;55611;48.602;9.490;2023-04-20T12:36:39;96450;;;10.4;62.5
68628;BME280;55611;48.602;9.490;2023-04-20T12:39:10;96440;;;10.4;62.5
68628;BME280;55611;48.602;9.490;2023-04-20T12:41:40;96440;;;10.4;62.5
68628;BME280;55611;48.602;9.490;2023-04-20T12:44:11;96440;;;10.4;62.5
68628;BME280;55611;48.602;9.490;2023-04-20T12:46:41;96440;;;10.4;62.5
68628;BME280;55611;48.602;9.490;2023-04-20T12:49:12;96440;;;10.4;62.5
68628;BME280;55611;48.602;9.490;2023-04-20T12:51:42;96440;;;10.5;62.5
68628;BME280;55611;48.602;9.490;2023-04-20T12:54:13;96440;;;10.5;63
68628;BME280;55611;48.602;9.490;2023-04-20T12:56:43;96440;;;10.6;62.5
68628;BME280;55611;48.602;9.490;2023-04-20T12:59:14;96450;;;10.6;62.5
68628;BME280;55611;48.602;9.490;2023-04-20T13:01:44;96440;;;10.6;62.5
68628;BME280;55611;48.602;9.490;2023-04-20T13:04:15;96440;;;10.5;62.5
68628;BME280;55611;48.602;9.490;2023-04-20T13:06:46;96440;;;10.4;62.5
68628;BME280;55611;48.602;9.490;2023-04-20T13:09:16;96440;;;10.4;62.5
68628;BME280;55611;48.602;9.490;2023-04-20T13:11:46;96440;;;10.3;62.5
68628;BME280;55611;48.602;9.490;2023-04-20T13:14:17;96440;;;10.3;62.5
68628;BME280;55611;48.602;9.490;2023-04-20T13:16:48;96430;;;10.2;62.5
68628;BME280;55611;48.602;9.490;2023-04-20T13:19:18;96430;;;10.2;62.5
68628;BME280;55611;48.602;9.490;2023-04-20T13:21:49;96430;;;10.2;62.5
68628;BME280;55611;48.602;9.490;2023-04-20T13:24:19;96430;;;10.2;62.5
68628;BME280;55611;48.602;9.490;2023-04-20T13:26:52;96430;;;10.2;62.5
68628;BME280;55611;48.602;9.490;2023-04-20T13:29:20;96430;;;10.2;62.5
68628;BME280;55611;48.602;9.490;2023-04-20T13:31:51;96430;;;10.2;62.5
68628;BME280;55611;48.602;9.490;2023-04-20T13:34:21;96430;;;10.2;62.5
68628;BME280;55611;48.602;9.490;2023-04-20T13:36:52;96420;;;10.1;62.5
68628;BME280;55611;48.602;9.490;2023-04-20T13:39:22;96420;;;10.1;62.5
68628;BME280;55611;48.602;9.490;2023-04-20T13:41:53;96420;;;10;62.5
68628;BME280;55611;48.602;9.490;2023-04-20T13:44:23;96420;;;10;62.5
68628;BME280;55611;48.602;9.490;2023-04-20T13:46:54;96410;;;10;62.5
68628;BME280;55611;48.602;9.490;2023-04-20T13:49:24;96420;;;10;62.5
68628;BME280;55611;48.602;9.490;2023-04-20T13:51:55;96410;;;10;62.5
68628;BME280;55611;48.602;9.490;2023-04-20T13:54:25;96420;;;10;62.5
68628;BME280;55611;48.602;9.490;2023-04-20T13:56:56;96420;;;10.1;62.5
68628;BME280;55611;48.602;9.490;2023-04-20T13:59:26;96420;;;10;62.5
68628;BME280;55611;48.602;9.490;2023-04-20T14:04:27;96410;;;10;62.5
68628;BME280;55611;48.602;9.490;2023-04-20T14:06:58;96410;;;10.1;62.5
68628;BME280;55611;48.602;9.490;2023-04-20T14:09:29;96410;;;10.1;62.5
68628;BME280;55611;48.602;9.490;2023-04-20T14:11:59;96420;;;10.1;62.5
68628;BME280;55611;48.602;9.490;2023-04-20T14:14:29;96420;;;10.1;62.5
68628;BME280;55611;48.602;9.490;2023-04-20T14:17:00;96410;;;10.1;62.5
68628;BME280;55611;48.602;9.490;2023-04-20T14:19:30;96410;;;10.1;62.5
68628;BME280;55611;48.602;9.490;2023-04-20T14:22:01;96400;;;10.1;62.5
68628;BME280;55611;48.602;9.490;2023-04-20T14:24:31;96400;;;10.1;62.5
68628;BME280;55611;48.602;9.490;2023-04-20T14:27:02;96400;;;10.2;62.5
68628;BME280;55611;48.602;9.490;2023-04-20T14:29:33;96400;;;10.1;62.5
68628;BME280;55611;48.602;9.490;2023-04-20T14:32:03;96410;;;10.2;62.5
68628;BME280;55611;48.602;9.490;2023-04-20T14:34:33;96410;;;10.1;62.5
68628;BME280;55611;48.602;9.490;2023-04-20T14:37:04;96420;;;10.2;62.5
68628;BME280;55611;48.602;9.490;2023-04-20T14:39:34;96420;;;10.2;62.5
68628;BME280;55611;48.602;9.490;2023-04-20T14:42:05;96420;;;10.2;62.5
68628;BME280;55611;48.602;9.490;2023-04-20T14:44:35;96430;;;10.3;62.5